createdAt,value
2017-12-28T00:01:55.996Z,2.50
2017-12-28T00:04:23.425Z,3.47
2017-12-28T00:06:50.851Z,2.43
2017-12-28T00:09:18.733Z,2.13
2017-12-28T00:11:47.091Z,2.10
2017-12-28T00:14:14.510Z,2.67
2017-12-28T00:16:41.923Z,2.53
2017-12-28T00:19:09.347Z,2.40
2017-12-28T00:21:37.544Z,2.33
2017-12-28T00:24:04.961Z,2.80
2017-12-28T00:26:33.038Z,3.10
2017-12-28T00:29:02.424Z,3.43
2017-12-28T00:31:29.821Z,3.43
2017-12-28T00:33:57.248Z,3.87
2017-12-28T00:36:24.671Z,4.27
2017-12-28T00:38:52.090Z,2.60
2017-12-28T00:41:19.504Z,2.93
2017-12-28T00:43:46.930Z,3.07
2017-12-28T00:46:14.342Z,3.00
2017-12-28T00:48:45.115Z,3.17
2017-12-28T00:51:12.532Z,2.90
2017-12-28T00:53:40.714Z,3.10
2017-12-28T00:56:09.616Z,3.93
2017-12-28T00:58:37.036Z,4.27
2017-12-28T01:01:04.455Z,3.40
2017-12-28T01:03:31.886Z,3.40
2017-12-28T01:05:59.307Z,3.70
2017-12-28T01:08:26.730Z,3.50
2017-12-28T01:10:54.151Z,4.67
2017-12-28T01:13:21.579Z,4.10
2017-12-28T01:15:49.004Z,4.30
2017-12-28T01:18:16.415Z,4.53
2017-12-28T01:20:44.603Z,4.10
2017-12-28T01:23:12.025Z,3.63
2017-12-28T01:25:39.443Z,4.30
2017-12-28T01:28:06.875Z,4.60
2017-12-28T01:30:34.288Z,4.23
2017-12-28T01:33:01.716Z,4.27
2017-12-28T01:35:29.566Z,3.97
2017-12-28T01:37:56.979Z,4.00
2017-12-28T01:40:25.170Z,4.30
2017-12-28T01:42:53.356Z,3.60
2017-12-28T01:45:20.786Z,4.17
2017-12-28T01:48:00.220Z,5.60
2017-12-28T01:50:27.640Z,5.70
2017-12-28T01:52:55.600Z,5.93
2017-12-28T01:55:23.597Z,5.90
2017-12-28T01:57:51.031Z,5.73
2017-12-28T02:00:18.444Z,7.53
2017-12-28T02:02:47.062Z,6.33
2017-12-28T02:05:14.483Z,6.27
2017-12-28T02:07:42.676Z,6.93
2017-12-28T02:10:10.104Z,6.43
2017-12-28T02:12:38.300Z,6.17
2017-12-28T02:15:05.727Z,7.17
2017-12-28T02:17:33.151Z,7.03
2017-12-28T02:20:01.015Z,6.27
2017-12-28T02:22:28.445Z,6.33
2017-12-28T02:24:55.866Z,6.57
2017-12-28T02:27:23.300Z,6.10
2017-12-28T02:29:50.712Z,6.83
2017-12-28T02:32:19.374Z,7.97
2017-12-28T02:34:47.559Z,6.93
2017-12-28T02:37:17.136Z,5.70
2017-12-28T02:39:44.555Z,6.53
2017-12-28T02:42:14.359Z,5.57
2017-12-28T02:44:41.768Z,5.77
2017-12-28T02:47:09.203Z,6.30
2017-12-28T02:49:37.144Z,4.97
2017-12-28T02:52:04.571Z,4.87
2017-12-28T02:54:33.154Z,5.73
2017-12-28T02:57:01.351Z,5.03
2017-12-28T02:59:28.775Z,5.13
2017-12-28T03:01:57.369Z,4.93
2017-12-28T03:04:25.561Z,5.93
2017-12-28T03:06:53.004Z,5.53
2017-12-28T03:09:21.196Z,5.00
2017-12-28T03:11:48.616Z,6.63
2017-12-28T03:14:16.048Z,4.47
2017-12-28T03:16:44.124Z,4.67
2017-12-28T03:19:11.529Z,4.37
2017-12-28T03:21:41.379Z,4.50
2017-12-28T03:24:08.807Z,4.03
2017-12-28T03:26:36.234Z,4.90
2017-12-28T03:29:04.423Z,4.77
2017-12-28T03:31:32.616Z,5.23
2017-12-28T03:34:00.042Z,5.30
2017-12-28T03:36:28.224Z,5.00
2017-12-28T03:38:57.707Z,4.40
2017-12-28T03:41:25.130Z,4.50
2017-12-28T03:43:52.560Z,4.30
2017-12-28T03:46:19.971Z,4.30
2017-12-28T03:48:47.401Z,3.80
2017-12-28T03:51:14.826Z,4.37
2017-12-28T03:53:43.003Z,4.13
2017-12-28T03:56:10.423Z,4.20
2017-12-28T03:58:37.852Z,4.23
2017-12-28T04:01:06.095Z,3.67
2017-12-28T04:03:33.515Z,4.07
2017-12-28T04:06:02.304Z,4.33
2017-12-28T04:08:29.720Z,3.47
2017-12-28T04:10:57.161Z,3.40
2017-12-28T04:13:25.108Z,3.53
2017-12-28T04:15:53.304Z,3.03
2017-12-28T04:18:21.119Z,3.57
2017-12-28T04:20:48.840Z,3.57
2017-12-28T04:23:16.268Z,3.50
2017-12-28T04:25:44.474Z,4.60
2017-12-28T04:28:11.888Z,5.00
2017-12-28T04:30:40.077Z,6.77
2017-12-28T04:33:07.496Z,5.37
2017-12-28T04:35:35.495Z,8.07
2017-12-28T04:38:04.087Z,5.87
2017-12-28T04:40:31.523Z,6.50
2017-12-28T04:42:59.720Z,7.63
2017-12-28T04:45:27.917Z,5.53
2017-12-28T04:47:56.032Z,6.53
2017-12-28T04:50:23.464Z,7.87
2017-12-28T04:52:50.882Z,6.53
2017-12-28T04:55:18.870Z,9.03
2017-12-28T04:57:48.927Z,9.60
2017-12-28T05:00:17.128Z,6.33
2017-12-28T05:02:45.596Z,6.13
2017-12-28T05:05:13.616Z,4.27
2017-12-28T05:07:41.045Z,8.47
2017-12-28T05:10:08.473Z,7.17
2017-12-28T05:12:35.895Z,5.83
2017-12-28T05:15:03.324Z,4.17
2017-12-28T05:17:30.752Z,6.93
2017-12-28T05:19:59.818Z,6.23
2017-12-28T05:22:27.252Z,4.03
2017-12-28T05:24:54.663Z,4.17
2017-12-28T05:27:22.854Z,4.97
2017-12-28T05:29:50.275Z,4.23
2017-12-28T05:32:18.232Z,2.97
2017-12-28T05:34:45.655Z,4.53
2017-12-28T05:37:15.558Z,7.10
2017-12-28T05:39:42.976Z,7.50
2017-12-28T05:42:10.408Z,4.80
2017-12-28T05:44:37.825Z,4.23
2017-12-28T05:47:05.269Z,3.67
2017-12-28T05:49:33.721Z,8.47
2017-12-28T05:52:01.626Z,3.80
2017-12-28T05:54:29.822Z,3.30
2017-12-28T05:56:57.251Z,4.60
2017-12-28T05:59:25.444Z,2.37
2017-12-28T06:01:52.872Z,4.60
2017-12-28T06:04:21.047Z,2.50
2017-12-28T06:06:49.241Z,1.67
2017-12-28T06:09:16.660Z,1.67
2017-12-28T06:11:44.080Z,1.60
2017-12-28T06:14:11.511Z,1.60
2017-12-28T06:16:38.923Z,1.87
2017-12-28T06:19:06.356Z,1.73
2017-12-28T06:21:33.787Z,2.50
2017-12-28T06:24:01.215Z,2.03
2017-12-28T06:26:28.627Z,3.37
2017-12-28T06:28:56.434Z,2.40
2017-12-28T06:31:23.833Z,2.37
2017-12-28T06:33:51.267Z,3.37
2017-12-28T06:36:19.452Z,2.00
2017-12-28T06:38:46.882Z,1.90
2017-12-28T06:41:15.072Z,3.23
2017-12-28T06:43:42.495Z,3.23
2017-12-28T06:46:09.916Z,1.80
2017-12-28T06:48:37.354Z,4.27
2017-12-28T06:51:04.764Z,5.80
2017-12-28T06:53:32.191Z,4.53
2017-12-28T06:56:03.068Z,3.83
2017-12-28T06:58:30.500Z,3.27
2017-12-28T07:00:57.908Z,2.63
2017-12-28T07:03:25.331Z,3.60
2017-12-28T07:05:52.755Z,5.70
2017-12-28T07:08:20.180Z,4.53
2017-12-28T07:10:47.596Z,5.83
2017-12-28T07:13:15.307Z,4.77
2017-12-28T07:15:42.729Z,3.57
2017-12-28T07:18:14.699Z,7.97
2017-12-28T07:20:42.888Z,8.20
2017-12-28T07:23:16.944Z,9.67
2017-12-28T07:25:48.943Z,5.97
2017-12-28T07:28:16.380Z,8.33
2017-12-28T07:30:43.807Z,7.37
2017-12-28T07:33:11.231Z,7.53
2017-12-28T07:35:39.963Z,6.13
2017-12-28T07:38:07.387Z,15.70
2017-12-28T07:40:34.907Z,9.17
2017-12-28T07:43:02.333Z,6.20
2017-12-28T07:45:29.760Z,12.73
2017-12-28T07:47:57.980Z,8.33
2017-12-28T07:50:25.407Z,10.20
2017-12-28T07:52:54.730Z,7.50
2017-12-28T07:55:22.161Z,10.63
2017-12-28T07:57:49.580Z,11.87
2017-12-28T08:00:17.780Z,11.93
2017-12-28T08:02:45.204Z,5.43
2017-12-28T08:05:12.628Z,6.43
2017-12-28T08:07:40.048Z,5.97
2017-12-28T08:10:09.959Z,9.10
2017-12-28T08:12:37.392Z,9.23
2017-12-28T08:15:04.825Z,9.00
2017-12-28T08:17:32.250Z,8.90
2017-12-28T08:19:59.681Z,8.23
2017-12-28T08:22:27.872Z,14.67
2017-12-28T08:24:55.292Z,10.53
2017-12-28T08:27:23.487Z,7.60
2017-12-28T08:29:50.928Z,5.90
2017-12-28T08:32:19.123Z,7.00
2017-12-28T08:34:46.549Z,6.43
2017-12-28T08:37:14.031Z,6.13
2017-12-28T08:39:42.215Z,9.97
2017-12-28T08:42:10.579Z,4.93
2017-12-28T08:44:38.767Z,9.00
2017-12-28T08:47:11.839Z,10.47
2017-12-28T08:49:40.027Z,4.63
2017-12-28T08:52:07.457Z,14.83
2017-12-28T08:54:34.942Z,12.07
2017-12-28T08:57:04.977Z,12.07
2017-12-28T08:59:32.402Z,119.87
2017-12-28T09:02:01.131Z,137.43
2017-12-28T09:04:28.556Z,75.37
2017-12-28T09:06:57.355Z,35.83
2017-12-28T09:09:24.792Z,37.77
2017-12-28T09:11:52.991Z,82.77
2017-12-28T09:14:20.440Z,19.80
2017-12-28T09:16:47.872Z,10.23
2017-12-28T09:19:16.458Z,4.60
2017-12-28T09:21:44.652Z,6.80
2017-12-28T09:24:12.995Z,2.03
2017-12-28T09:26:40.732Z,7.43
2017-12-28T09:29:08.435Z,4.50
2017-12-28T09:31:35.839Z,7.00
2017-12-28T09:34:03.264Z,4.33
2017-12-28T09:36:31.472Z,6.27
2017-12-28T09:38:58.893Z,6.37
2017-12-28T09:41:26.316Z,4.57
2017-12-28T09:43:53.745Z,4.10
2017-12-28T09:46:21.169Z,6.77
2017-12-28T09:48:48.596Z,5.30
2017-12-28T09:51:16.021Z,5.03
2017-12-28T09:53:43.460Z,5.90
2017-12-28T09:56:11.704Z,6.23
2017-12-28T09:58:39.103Z,6.47
2017-12-28T10:01:06.536Z,2.63
2017-12-28T10:03:34.490Z,1.63
2017-12-28T10:06:02.668Z,5.27
2017-12-28T10:08:30.100Z,3.43
2017-12-28T10:10:57.513Z,5.60
2017-12-28T10:16:35.611Z,4.57
2017-12-28T10:19:04.222Z,5.73
2017-12-28T10:21:32.323Z,1.90
2017-12-28T10:24:02.263Z,1.93
2017-12-28T10:26:29.679Z,3.15
2017-12-28T10:28:57.512Z,1.27
2017-12-28T10:31:25.353Z,3.77
2017-12-28T10:33:54.545Z,2.93
2017-12-28T10:36:21.963Z,7.63
2017-12-28T10:38:49.832Z,2.30
2017-12-28T10:41:17.253Z,1.57
2017-12-28T10:43:44.684Z,1.83
2017-12-28T10:46:12.108Z,2.17
2017-12-28T10:48:39.528Z,3.77
2017-12-28T10:51:06.956Z,3.27
2017-12-28T10:53:35.755Z,4.17
2017-12-28T10:56:03.952Z,2.27
2017-12-28T10:58:32.059Z,5.03
2017-12-28T11:00:59.479Z,1.80
2017-12-28T11:03:26.891Z,3.80
2017-12-28T11:05:54.318Z,4.63
2017-12-28T11:08:23.648Z,3.43
2017-12-28T11:10:51.076Z,3.03
2017-12-28T11:13:18.952Z,2.63
2017-12-28T11:15:46.501Z,3.00
2017-12-28T11:18:13.926Z,4.10
2017-12-28T11:20:41.372Z,1.87
2017-12-28T11:23:09.581Z,7.97
2017-12-28T11:25:37.128Z,2.47
2017-12-28T11:28:05.417Z,6.77
2017-12-28T11:30:32.820Z,5.73
2017-12-28T11:33:00.246Z,3.33
2017-12-28T11:35:27.667Z,4.47
2017-12-28T11:37:55.084Z,3.37
2017-12-28T11:40:22.507Z,3.73
2017-12-28T11:45:42.552Z,3.17
2017-12-28T11:48:09.972Z,5.70
2017-12-28T11:50:40.165Z,4.80
2017-12-28T11:53:07.595Z,3.90
2017-12-28T11:55:43.440Z,4.87
2017-12-28T11:58:10.858Z,5.70
2017-12-28T12:00:44.787Z,5.47
2017-12-28T12:06:12.915Z,5.43
2017-12-28T12:08:46.710Z,7.17
2017-12-28T12:11:14.672Z,4.03
2017-12-28T12:13:42.092Z,5.53
2017-12-28T12:16:09.657Z,5.57
2017-12-28T12:18:37.074Z,8.43
2017-12-28T12:21:04.499Z,5.03
2017-12-28T12:23:31.928Z,5.23
2017-12-28T12:25:59.475Z,6.93
2017-12-28T12:28:26.889Z,9.27
2017-12-28T12:30:55.075Z,8.60
2017-12-28T12:33:25.571Z,9.23
2017-12-28T12:35:52.987Z,6.97
2017-12-28T12:38:20.411Z,5.67
2017-12-28T12:40:50.607Z,5.43
2017-12-28T12:43:18.027Z,7.03
2017-12-28T12:45:45.774Z,11.33
2017-12-28T12:48:13.187Z,7.63
2017-12-28T12:50:41.472Z,6.43
2017-12-28T12:53:08.892Z,5.70
2017-12-28T12:55:36.308Z,7.83
2017-12-28T12:58:04.543Z,4.40
2017-12-28T13:00:31.962Z,7.97
2017-12-28T13:02:59.387Z,6.27
2017-12-28T13:05:30.718Z,4.87
2017-12-28T13:07:58.288Z,6.50
2017-12-28T13:10:26.479Z,1.63
2017-12-28T13:12:53.915Z,4.23
2017-12-28T13:15:22.109Z,3.77
2017-12-28T13:17:49.527Z,6.10
2017-12-28T13:20:16.947Z,4.77
2017-12-28T13:22:44.388Z,2.77
2017-12-28T13:25:11.800Z,2.37
2017-12-28T13:27:39.237Z,2.20
2017-12-28T13:30:13.621Z,5.77
2017-12-28T13:32:41.794Z,7.50
2017-12-28T13:35:09.209Z,6.40
2017-12-28T13:37:37.195Z,6.47
2017-12-28T13:40:05.387Z,4.53
2017-12-28T13:42:32.810Z,3.73
2017-12-28T13:45:01.048Z,2.13
2017-12-28T13:47:28.479Z,7.37
2017-12-28T13:49:56.189Z,3.73
2017-12-28T13:52:23.628Z,1.50
2017-12-28T13:54:51.057Z,2.20
2017-12-28T13:57:18.476Z,6.00
2017-12-28T13:59:45.914Z,5.60
2017-12-28T14:02:13.323Z,2.80
2017-12-28T14:04:40.757Z,2.47
2017-12-28T14:07:08.172Z,7.73
2017-12-28T14:09:35.600Z,2.20
2017-12-28T14:12:04.416Z,3.00
2017-12-28T14:14:32.498Z,2.67
2017-12-28T14:16:59.912Z,6.57
2017-12-28T14:19:27.339Z,9.60
2017-12-28T14:21:55.947Z,2.13
2017-12-28T14:24:23.393Z,1.67
2017-12-28T14:26:51.404Z,4.40
2017-12-28T14:29:18.839Z,1.90
2017-12-28T14:31:46.264Z,5.10
2017-12-28T14:34:13.686Z,3.20
2017-12-28T14:36:41.652Z,6.27
2017-12-28T14:39:09.840Z,3.20
2017-12-28T14:41:37.603Z,2.87
2017-12-28T14:44:05.054Z,6.17
2017-12-28T14:46:32.439Z,6.37
2017-12-28T14:49:03.096Z,2.47
2017-12-28T14:51:31.292Z,6.67
2017-12-28T14:53:58.720Z,4.20
2017-12-28T14:56:27.355Z,6.00
2017-12-28T14:58:54.775Z,8.37
2017-12-28T15:01:22.772Z,7.43
2017-12-28T15:03:50.204Z,3.10
2017-12-28T15:06:17.624Z,5.80
2017-12-28T15:08:45.486Z,5.67
2017-12-28T15:11:12.916Z,6.47
2017-12-28T15:13:42.252Z,6.70
2017-12-28T15:16:10.648Z,6.27
2017-12-28T15:18:39.154Z,5.10
2017-12-28T15:21:06.575Z,7.60
2017-12-28T15:23:34.764Z,6.17
2017-12-28T15:26:02.959Z,5.20
2017-12-28T15:28:30.374Z,7.37
2017-12-28T15:30:57.796Z,6.17
2017-12-28T15:33:25.234Z,5.17
2017-12-28T15:35:53.983Z,5.83
2017-12-28T15:38:22.184Z,5.77
2017-12-28T15:40:49.602Z,9.73
2017-12-28T15:43:17.029Z,6.43
2017-12-28T15:45:44.489Z,2.80
2017-12-28T15:48:12.532Z,5.63
2017-12-28T15:50:39.956Z,7.17
2017-12-28T15:53:07.384Z,8.37
2017-12-28T15:55:34.795Z,4.90
2017-12-28T15:58:02.224Z,6.70
2017-12-28T16:00:30.824Z,5.87
2017-12-28T16:02:59.536Z,5.87
2017-12-28T16:05:26.961Z,10.93
2017-12-28T16:07:55.152Z,6.03
2017-12-28T16:10:22.563Z,9.40
2017-12-28T16:12:51.979Z,7.70
2017-12-28T16:15:19.417Z,6.17
2017-12-28T16:17:46.827Z,5.17
2017-12-28T16:20:14.836Z,8.57
2017-12-28T16:22:42.284Z,6.40
2017-12-28T16:25:09.703Z,3.57
2017-12-28T16:27:37.244Z,5.80
2017-12-28T16:30:05.451Z,6.83
2017-12-28T16:32:32.875Z,5.83
2017-12-28T16:35:01.463Z,5.87
2017-12-28T16:37:30.900Z,5.70
2017-12-28T16:39:58.319Z,11.60
2017-12-28T16:42:26.508Z,5.00
2017-12-28T16:44:54.713Z,5.37
2017-12-28T16:47:22.122Z,7.17
2017-12-28T16:49:52.231Z,6.57
2017-12-28T16:52:19.795Z,7.50
2017-12-28T16:54:47.214Z,5.53
2017-12-28T16:57:15.623Z,8.73
2017-12-28T16:59:43.183Z,7.47
2017-12-28T17:02:11.482Z,9.30
2017-12-28T17:04:38.899Z,6.87
2017-12-28T17:07:06.336Z,8.63
2017-12-28T17:09:33.768Z,7.80
2017-12-28T17:12:01.962Z,8.73
2017-12-28T17:14:29.384Z,5.27
2017-12-28T17:16:57.576Z,8.90
2017-12-28T17:19:25.008Z,6.77
2017-12-28T17:21:52.423Z,9.80
2017-12-28T17:24:19.858Z,9.30
2017-12-28T17:26:50.071Z,5.33
2017-12-28T17:29:17.503Z,8.70
2017-12-28T17:31:45.688Z,10.50
2017-12-28T17:34:13.884Z,3.20
2017-12-28T17:36:41.311Z,5.30
2017-12-28T17:39:09.508Z,6.93
2017-12-28T17:41:37.762Z,5.83
2017-12-28T17:44:05.956Z,5.83
2017-12-28T17:46:33.379Z,8.43
2017-12-28T17:49:00.804Z,5.20
2017-12-28T17:51:28.235Z,9.87
2017-12-28T17:53:56.076Z,9.60
2017-12-28T17:56:24.272Z,7.87
2017-12-28T17:58:51.695Z,10.00
2017-12-28T18:01:19.132Z,12.07
2017-12-28T18:03:46.567Z,9.33
2017-12-28T18:06:14.987Z,9.93
2017-12-28T18:08:42.418Z,9.77
2017-12-28T18:11:10.380Z,8.73
2017-12-28T18:13:37.808Z,7.17
2017-12-28T18:16:05.248Z,8.07
2017-12-28T18:18:33.437Z,6.07
2017-12-28T18:21:00.868Z,7.23
2017-12-28T18:23:29.068Z,13.60
2017-12-28T18:25:57.212Z,13.23
2017-12-28T18:28:25.404Z,8.10
2017-12-28T18:30:52.835Z,6.93
2017-12-28T18:33:20.392Z,8.23
2017-12-28T18:35:47.822Z,7.93
2017-12-28T18:38:15.648Z,10.43
2017-12-28T18:40:43.079Z,7.67
2017-12-28T18:43:10.939Z,7.73
2017-12-28T18:45:38.368Z,7.50
2017-12-28T18:48:06.151Z,9.60
2017-12-28T18:50:34.115Z,8.70
2017-12-28T18:53:01.539Z,7.90
2017-12-28T18:55:28.960Z,8.90
2017-12-28T18:57:57.152Z,5.63
2017-12-28T19:00:24.613Z,8.87
2017-12-28T19:02:52.435Z,7.57
2017-12-28T19:05:19.831Z,6.03
2017-12-28T19:07:47.254Z,8.20
2017-12-28T19:10:14.677Z,6.27
2017-12-28T19:12:42.099Z,6.63
2017-12-28T19:15:09.529Z,8.07
2017-12-28T19:17:36.966Z,8.27
2017-12-28T19:20:05.012Z,9.33
2017-12-28T19:22:32.458Z,9.40
2017-12-28T19:25:00.824Z,8.30
2017-12-28T19:27:28.997Z,6.37
2017-12-28T19:29:56.414Z,9.13
2017-12-28T19:32:23.863Z,4.77
2017-12-28T19:34:52.594Z,9.07
2017-12-28T19:37:20.019Z,9.60
2017-12-28T19:39:47.441Z,7.93
2017-12-28T19:42:15.271Z,7.77
2017-12-28T19:44:42.693Z,8.07
2017-12-28T19:47:10.119Z,7.97
2017-12-28T19:49:37.809Z,7.57
2017-12-28T19:52:05.220Z,7.57
2017-12-28T19:54:32.643Z,6.70
2017-12-28T19:57:03.413Z,5.10
2017-12-28T19:59:30.835Z,9.43
2017-12-28T20:01:59.045Z,6.53
2017-12-28T20:04:26.460Z,8.03
2017-12-28T20:06:55.655Z,7.83
2017-12-28T20:09:23.500Z,9.53
2017-12-28T20:11:51.087Z,4.90
2017-12-28T20:14:19.279Z,8.90
2017-12-28T20:16:47.228Z,5.50
2017-12-28T20:19:16.128Z,6.33
2017-12-28T20:21:44.325Z,8.60
2017-12-28T20:24:11.856Z,8.77
2017-12-28T20:26:40.588Z,6.57
2017-12-28T20:29:08.007Z,10.30
2017-12-28T20:31:36.198Z,7.93
2017-12-28T20:34:03.630Z,11.00
2017-12-28T20:36:31.827Z,10.23
2017-12-28T20:38:59.273Z,5.90
2017-12-28T20:41:27.457Z,8.67
2017-12-28T20:43:54.892Z,9.00
2017-12-28T20:46:23.095Z,8.03
2017-12-28T20:48:50.531Z,5.87
2017-12-28T20:51:18.724Z,8.83
2017-12-28T20:53:46.217Z,12.70
2017-12-28T20:56:13.646Z,9.87
2017-12-28T20:58:41.073Z,8.93
2017-12-28T21:01:09.268Z,10.80
2017-12-28T21:03:36.863Z,11.50
2017-12-28T21:06:04.293Z,10.40
2017-12-28T21:08:31.723Z,7.50
2017-12-28T21:10:59.914Z,6.30
2017-12-28T21:13:28.269Z,10.77
2017-12-28T21:15:55.701Z,8.37
2017-12-28T21:18:23.896Z,7.93
2017-12-28T21:20:51.315Z,8.73
2017-12-28T21:23:19.517Z,6.10
2017-12-28T21:25:47.905Z,10.37
2017-12-28T21:28:15.327Z,8.20
2017-12-28T21:30:42.787Z,10.87
2017-12-28T21:33:10.218Z,6.30
2017-12-28T21:35:37.648Z,13.80
2017-12-28T21:38:05.844Z,11.73
2017-12-28T21:40:33.271Z,8.53
2017-12-28T21:43:01.473Z,13.83
2017-12-28T21:45:28.905Z,5.63
2017-12-28T21:47:57.105Z,9.07
2017-12-28T21:50:24.533Z,9.13
2017-12-28T21:52:51.960Z,10.27
2017-12-28T21:55:19.395Z,5.70
2017-12-28T21:57:46.831Z,8.77
2017-12-28T22:00:14.250Z,9.50
2017-12-28T22:02:41.680Z,5.83
2017-12-28T22:05:09.867Z,9.53
2017-12-28T22:07:38.260Z,7.67
2017-12-28T22:10:05.963Z,6.77
2017-12-28T22:12:34.561Z,10.43
2017-12-28T22:15:02.407Z,5.87
2017-12-28T22:17:29.844Z,5.13
2017-12-28T22:20:01.803Z,6.33
2017-12-28T22:22:29.997Z,7.87
2017-12-28T22:24:58.192Z,7.60
2017-12-28T22:27:26.624Z,6.93
2017-12-28T22:29:54.051Z,8.73
2017-12-28T22:32:21.500Z,8.97
2017-12-28T22:34:48.923Z,10.13
2017-12-28T22:37:17.089Z,8.27
2017-12-28T22:39:45.275Z,6.80
2017-12-28T22:42:13.483Z,8.47
2017-12-28T22:44:40.898Z,5.30
2017-12-28T22:47:10.087Z,8.03
2017-12-28T22:49:38.286Z,7.37
2017-12-28T22:52:05.714Z,5.77
2017-12-28T22:54:35.820Z,8.63
2017-12-28T22:57:03.252Z,7.63
2017-12-28T22:59:30.675Z,8.47
2017-12-28T23:01:58.099Z,7.07
2017-12-28T23:04:27.065Z,8.27
2017-12-28T23:06:54.497Z,10.50
2017-12-28T23:09:21.923Z,6.07
2017-12-28T23:11:50.120Z,8.37
2017-12-28T23:14:17.547Z,8.23
2017-12-28T23:16:45.740Z,5.73
2017-12-28T23:19:13.275Z,7.53
2017-12-28T23:21:41.488Z,6.77
2017-12-28T23:24:08.907Z,4.70
2017-12-28T23:26:37.107Z,9.77
2017-12-28T23:29:04.536Z,12.13
2017-12-28T23:31:32.731Z,6.53
2017-12-28T23:34:00.164Z,8.47
2017-12-28T23:36:27.578Z,4.97
2017-12-28T23:38:55.183Z,10.33
2017-12-28T23:41:23.376Z,7.17
2017-12-28T23:43:50.817Z,8.47
2017-12-28T23:46:19.003Z,7.77
2017-12-28T23:48:48.035Z,11.57
2017-12-28T23:51:15.454Z,7.67
2017-12-28T23:53:43.660Z,11.10
2017-12-28T23:56:11.076Z,8.60
2017-12-28T23:58:39.267Z,8.83
